Portada
METAR-TAF:

METAR-TAF

Aeroports :

Edward F. Knapp State Airport

Barre-Montpelier, Vermont, Estats Units d'Amèrica

latitud: 44-12-17N, longitud: 072-33-58W, altitud: 355 m

Observació

L'informe es va fer fa 41 minuts, a les 16:51 UTC
Vent calma
Temperatura -4°C
Humitat 46%
Pressió 1029 hPa
Visibilitat: 16.1 km
Cel clar

METAR: KMPV 171651Z AUTO 00000KT 10SM CLR M04/M14 A3040 RMK AO2 SLP319 T10441144

Hora: 12:32 (17:32 UTC)

Pronòstic

L'informe es va fer fa 6 hores i 12 minuts, a les 11:20 UTC
Pronòstic vàlid del 17 a les 12 UTC al 18 a les 12 UTC
Vent 3 kt amb direcció variable
Visibilitat: 10 km
Núvols disperses a una alçada de 20000 ft
A partir de les 17 a les 1500 UTC
Vent 5 kt del Sud/Sud-Est
Visibilitat: 10 km
Cel clar

TAF: KMPV 171120Z 1712/1812 VRB03KT P6SM SCT200 FM171500 15005KT P6SM SKC

Observacions i pronòstics meteorològics de més de 4000 aeroports (METAR i TAF).

Les estacions disponibles són els punts grocs i vermells al mapa.

Posi el ratolí al punt desitjat per veure el nom de l'estació.

Feu clic per veure les observacions i els pronòstics meteorològics.

Per canviar el mapa: feu clic els botons verds amb una creu de color negre per apropar; al botó verd amb un guió per allunyar la imatge; o en les fletxes verdes per a mapes adjacents.


METAR-TAF: